sensor_id;sensor_type;location;lat;lon;timestamp;temperature;humidity
51021;DHT22;38907;45.562;8.856;2024-01-15T00:00:22;3.40;99.90
51021;DHT22;38907;45.562;8.856;2024-01-15T00:05:24;3.40;99.90
51021;DHT22;38907;45.562;8.856;2024-01-15T00:10:27;3.50;99.90
51021;DHT22;38907;45.562;8.856;2024-01-15T00:15:29;3.20;99.90
51021;DHT22;38907;45.562;8.856;2024-01-15T00:20:31;3.10;99.90
51021;DHT22;38907;45.562;8.856;2024-01-15T00:25:34;3.10;99.90
51021;DHT22;38907;45.562;8.856;2024-01-15T00:30:36;3.00;99.90
51021;DHT22;38907;45.562;8.856;2024-01-15T00:35:38;3.00;99.90
51021;DHT22;38907;45.562;8.856;2024-01-15T00:40:41;3.00;99.90
51021;DHT22;38907;45.562;8.856;2024-01-15T00:45:43;2.90;99.90
51021;DHT22;38907;45.562;8.856;2024-01-15T00:50:45;3.10;99.90
51021;DHT22;38907;45.562;8.856;2024-01-15T00:55:48;3.20;99.90
51021;DHT22;38907;45.562;8.856;2024-01-15T01:00:50;3.10;99.90
51021;DHT22;38907;45.562;8.856;2024-01-15T01:05:52;3.00;99.90
51021;DHT22;38907;45.562;8.856;2024-01-15T01:10:56;2.90;99.90
51021;DHT22;38907;45.562;8.856;2024-01-15T01:15:58;3.00;99.90
51021;DHT22;38907;45.562;8.856;2024-01-15T01:20:59;3.30;99.90
51021;DHT22;38907;45.562;8.856;2024-01-15T01:26:03;3.20;99.90
51021;DHT22;38907;45.562;8.856;2024-01-15T01:31:04;3.20;99.90
51021;DHT22;38907;45.562;8.856;2024-01-15T01:36:07;3.30;99.90
51021;DHT22;38907;45.562;8.856;2024-01-15T01:41:11;3.20;99.90
51021;DHT22;38907;45.562;8.856;2024-01-15T01:46:13;3.20;99.90
51021;DHT22;38907;45.562;8.856;2024-01-15T01:51:15;2.80;99.90
51021;DHT22;38907;45.562;8.856;2024-01-15T01:56:18;3.10;99.90
51021;DHT22;38907;45.562;8.856;2024-01-15T02:01:20;2.80;99.90
51021;DHT22;38907;45.562;8.856;2024-01-15T02:06:23;2.90;99.90
51021;DHT22;38907;45.562;8.856;2024-01-15T02:11:26;2.80;99.90
51021;DHT22;38907;45.562;8.856;2024-01-15T02:16:28;2.90;99.90
51021;DHT22;38907;45.562;8.856;2024-01-15T02:21:30;2.80;99.90
51021;DHT22;38907;45.562;8.856;2024-01-15T02:26:34;2.60;99.90
51021;DHT22;38907;45.562;8.856;2024-01-15T02:31:37;2.60;99.90
51021;DHT22;38907;45.562;8.856;2024-01-15T02:36:39;2.40;99.90
51021;DHT22;38907;45.562;8.856;2024-01-15T02:41:42;2.00;99.90
51021;DHT22;38907;45.562;8.856;2024-01-15T02:46:44;2.00;99.90
51021;DHT22;38907;45.562;8.856;2024-01-15T02:51:46;2.10;99.90
51021;DHT22;38907;45.562;8.856;2024-01-15T02:56:49;2.40;99.90
51021;DHT22;38907;45.562;8.856;2024-01-15T03:01:50;2.40;99.90
51021;DHT22;38907;45.562;8.856;2024-01-15T03:06:52;2.60;99.90
51021;DHT22;38907;45.562;8.856;2024-01-15T03:11:55;2.20;99.90
51021;DHT22;38907;45.562;8.856;2024-01-15T03:16:57;2.50;99.90
51021;DHT22;38907;45.562;8.856;2024-01-15T03:21:59;2.50;99.90
51021;DHT22;38907;45.562;8.856;2024-01-15T03:27:03;2.50;99.90
51021;DHT22;38907;45.562;8.856;2024-01-15T03:32:05;2.60;99.90
51021;DHT22;38907;45.562;8.856;2024-01-15T03:37:07;2.50;99.90
51021;DHT22;38907;45.562;8.856;2024-01-15T03:42:10;2.60;99.90
51021;DHT22;38907;45.562;8.856;2024-01-15T03:47:12;2.40;99.90
51021;DHT22;38907;45.562;8.856;2024-01-15T03:52:14;2.50;99.90
51021;DHT22;38907;45.562;8.856;2024-01-15T03:57:17;2.60;99.90
51021;DHT22;38907;45.562;8.856;2024-01-15T04:02:18;2.70;99.90
51021;DHT22;38907;45.562;8.856;2024-01-15T04:07:20;2.80;99.90
51021;DHT22;38907;45.562;8.856;2024-01-15T04:12:23;2.60;99.90
51021;DHT22;38907;45.562;8.856;2024-01-15T04:17:26;2.30;99.90
51021;DHT22;38907;45.562;8.856;2024-01-15T04:22:28;2.00;99.90
51021;DHT22;38907;45.562;8.856;2024-01-15T04:27:31;2.20;99.90
51021;DHT22;38907;45.562;8.856;2024-01-15T04:32:33;2.20;99.90
51021;DHT22;38907;45.562;8.856;2024-01-15T04:37:35;2.10;99.90
51021;DHT22;38907;45.562;8.856;2024-01-15T04:42:38;2.00;99.90
51021;DHT22;38907;45.562;8.856;2024-01-15T04:47:39;2.20;99.90
51021;DHT22;38907;45.562;8.856;2024-01-15T04:52:43;2.20;99.90
51021;DHT22;38907;45.562;8.856;2024-01-15T04:57:46;2.40;99.90
51021;DHT22;38907;45.562;8.856;2024-01-15T05:02:48;2.30;99.90
51021;DHT22;38907;45.562;8.856;2024-01-15T05:07:50;2.10;99.90
51021;DHT22;38907;45.562;8.856;2024-01-15T05:12:53;2.10;99.90
51021;DHT22;38907;45.562;8.856;2024-01-15T05:17:54;2.20;99.90
51021;DHT22;38907;45.562;8.856;2024-01-15T05:22:56;2.30;99.90
51021;DHT22;38907;45.562;8.856;2024-01-15T05:27:59;2.20;99.90
51021;DHT22;38907;45.562;8.856;2024-01-15T05:33:01;2.10;99.90
51021;DHT22;38907;45.562;8.856;2024-01-15T05:38:03;2.10;99.90
51021;DHT22;38907;45.562;8.856;2024-01-15T05:43:07;2.30;99.90
51021;DHT22;38907;45.562;8.856;2024-01-15T05:48:08;2.20;99.90
51021;DHT22;38907;45.562;8.856;2024-01-15T05:53:10;1.90;99.90
51021;DHT22;38907;45.562;8.856;2024-01-15T05:58:13;1.90;99.90
51021;DHT22;38907;45.562;8.856;2024-01-15T06:03:15;2.00;99.90
51021;DHT22;38907;45.562;8.856;2024-01-15T06:08:17;2.00;99.90
51021;DHT22;38907;45.562;8.856;2024-01-15T06:13:22;2.10;99.90
51021;DHT22;38907;45.562;8.856;2024-01-15T06:18:24;2.10;99.90
51021;DHT22;38907;45.562;8.856;2024-01-15T06:23:26;2.00;99.90
51021;DHT22;38907;45.562;8.856;2024-01-15T06:28:29;1.80;99.90
51021;DHT22;38907;45.562;8.856;2024-01-15T06:33:31;1.70;99.90
51021;DHT22;38907;45.562;8.856;2024-01-15T06:38:33;1.40;99.90
51021;DHT22;38907;45.562;8.856;2024-01-15T06:43:36;1.40;99.90
51021;DHT22;38907;45.562;8.856;2024-01-15T06:48:38;1.40;99.90
51021;DHT22;38907;45.562;8.856;2024-01-15T06:53:40;1.40;99.90
51021;DHT22;38907;45.562;8.856;2024-01-15T06:58:43;1.40;99.90
51021;DHT22;38907;45.562;8.856;2024-01-15T07:03:44;1.30;99.90
51021;DHT22;38907;45.562;8.856;2024-01-15T07:08:46;1.40;99.90
51021;DHT22;38907;45.562;8.856;2024-01-15T07:13:49;1.50;99.90
51021;DHT22;38907;45.562;8.856;2024-01-15T07:18:51;1.60;99.90
51021;DHT22;38907;45.562;8.856;2024-01-15T07:23:53;1.50;99.90
51021;DHT22;38907;45.562;8.856;2024-01-15T07:28:56;1.40;99.90
51021;DHT22;38907;45.562;8.856;2024-01-15T07:33:58;1.20;99.90
51021;DHT22;38907;45.562;8.856;2024-01-15T07:39:00;1.20;99.90
51021;DHT22;38907;45.562;8.856;2024-01-15T07:44:05;1.30;99.90
51021;DHT22;38907;45.562;8.856;2024-01-15T07:49:07;1.60;99.90
51021;DHT22;38907;45.562;8.856;2024-01-15T07:54:09;1.70;99.90
51021;DHT22;38907;45.562;8.856;2024-01-15T07:59:13;1.70;99.90
51021;DHT22;38907;45.562;8.856;2024-01-15T08:04:15;1.50;99.90
51021;DHT22;38907;45.562;8.856;2024-01-15T08:09:17;1.50;99.90
51021;DHT22;38907;45.562;8.856;2024-01-15T08:14:20;1.70;99.90
51021;DHT22;38907;45.562;8.856;2024-01-15T08:19:22;1.90;99.90
51021;DHT22;38907;45.562;8.856;2024-01-15T08:24:24;2.00;99.90
51021;DHT22;38907;45.562;8.856;2024-01-15T08:29:27;2.10;99.90
51021;DHT22;38907;45.562;8.856;2024-01-15T08:34:29;2.00;99.90
51021;DHT22;38907;45.562;8.856;2024-01-15T08:39:31;2.20;99.90
51021;DHT22;38907;45.562;8.856;2024-01-15T08:44:34;1.70;99.90
51021;DHT22;38907;45.562;8.856;2024-01-15T08:49:36;1.50;99.90
51021;DHT22;38907;45.562;8.856;2024-01-15T08:54:38;1.80;99.90
51021;DHT22;38907;45.562;8.856;2024-01-15T08:59:41;1.90;99.90
51021;DHT22;38907;45.562;8.856;2024-01-15T09:04:43;1.70;99.90
51021;DHT22;38907;45.562;8.856;2024-01-15T09:09:45;1.70;99.90
51021;DHT22;38907;45.562;8.856;2024-01-15T09:14:48;1.70;99.90
51021;DHT22;38907;45.562;8.856;2024-01-15T09:19:51;1.80;99.90
51021;DHT22;38907;45.562;8.856;2024-01-15T09:24:53;1.80;99.90
51021;DHT22;38907;45.562;8.856;2024-01-15T09:29:56;1.80;99.90
51021;DHT22;38907;45.562;8.856;2024-01-15T09:34:57;1.80;99.90
51021;DHT22;38907;45.562;8.856;2024-01-15T09:39:59;1.80;99.90
51021;DHT22;38907;45.562;8.856;2024-01-15T09:45:03;1.90;99.90
51021;DHT22;38907;45.562;8.856;2024-01-15T09:50:06;2.00;99.90
51021;DHT22;38907;45.562;8.856;2024-01-15T09:55:09;1.80;99.90
51021;DHT22;38907;45.562;8.856;2024-01-15T10:00:13;2.10;99.90
51021;DHT22;38907;45.562;8.856;2024-01-15T10:05:16;2.10;99.90
51021;DHT22;38907;45.562;8.856;2024-01-15T10:10:18;2.20;99.90
51021;DHT22;38907;45.562;8.856;2024-01-15T10:15:23;2.30;99.90
51021;DHT22;38907;45.562;8.856;2024-01-15T10:20:26;2.30;99.90
51021;DHT22;38907;45.562;8.856;2024-01-15T10:25:29;2.40;99.90
51021;DHT22;38907;45.562;8.856;2024-01-15T10:30:33;2.70;99.90
51021;DHT22;38907;45.562;8.856;2024-01-15T10:35:38;2.60;99.90
51021;DHT22;38907;45.562;8.856;2024-01-15T10:40:40;2.90;99.90
51021;DHT22;38907;45.562;8.856;2024-01-15T10:45:44;3.00;99.90
51021;DHT22;38907;45.562;8.856;2024-01-15T10:50:47;3.20;99.90
51021;DHT22;38907;45.562;8.856;2024-01-15T10:55:50;3.40;99.90
51021;DHT22;38907;45.562;8.856;2024-01-15T11:00:53;3.50;99.90
51021;DHT22;38907;45.562;8.856;2024-01-15T11:05:55;3.70;99.90
51021;DHT22;38907;45.562;8.856;2024-01-15T11:10:57;4.00;99.90
51021;DHT22;38907;45.562;8.856;2024-01-15T11:16:02;4.30;99.90
51021;DHT22;38907;45.562;8.856;2024-01-15T11:21:23;4.50;99.90
51021;DHT22;38907;45.562;8.856;2024-01-15T11:31:28;4.90;99.90
51021;DHT22;38907;45.562;8.856;2024-01-15T11:37:00;5.10;99.90
51021;DHT22;38907;45.562;8.856;2024-01-15T11:42:03;5.20;99.90
51021;DHT22;38907;45.562;8.856;2024-01-15T11:47:07;5.40;99.90
51021;DHT22;38907;45.562;8.856;2024-01-15T11:52:11;5.60;99.90
51021;DHT22;38907;45.562;8.856;2024-01-15T11:57:19;5.60;99.90
51021;DHT22;38907;45.562;8.856;2024-01-15T12:02:25;5.70;99.90
51021;DHT22;38907;45.562;8.856;2024-01-15T12:07:27;5.80;99.90
51021;DHT22;38907;45.562;8.856;2024-01-15T12:12:37;5.90;99.90
51021;DHT22;38907;45.562;8.856;2024-01-15T12:17:40;5.90;99.90
51021;DHT22;38907;45.562;8.856;2024-01-15T12:22:42;6.00;99.90
51021;DHT22;38907;45.562;8.856;2024-01-15T12:27:44;6.10;99.90
51021;DHT22;38907;45.562;8.856;2024-01-15T12:32:48;6.10;99.90
51021;DHT22;38907;45.562;8.856;2024-01-15T12:37:50;6.20;99.90
51021;DHT22;38907;45.562;8.856;2024-01-15T12:42:51;6.40;99.90
51021;DHT22;38907;45.562;8.856;2024-01-15T12:47:55;6.50;99.90
51021;DHT22;38907;45.562;8.856;2024-01-15T12:52:57;6.70;99.90
51021;DHT22;38907;45.562;8.856;2024-01-15T12:58:00;6.90;99.90
51021;DHT22;38907;45.562;8.856;2024-01-15T13:03:04;7.10;99.90
51021;DHT22;38907;45.562;8.856;2024-01-15T13:08:06;7.30;99.90
51021;DHT22;38907;45.562;8.856;2024-01-15T13:13:07;7.40;99.90
51021;DHT22;38907;45.562;8.856;2024-01-15T13:18:11;7.50;99.90
51021;DHT22;38907;45.562;8.856;2024-01-15T13:23:13;7.60;99.90
51021;DHT22;38907;45.562;8.856;2024-01-15T13:28:14;7.60;99.90
51021;DHT22;38907;45.562;8.856;2024-01-15T13:33:18;7.70;99.90
51021;DHT22;38907;45.562;8.856;2024-01-15T13:38:19;7.80;99.90
51021;DHT22;38907;45.562;8.856;2024-01-15T13:43:21;7.80;99.90
51021;DHT22;38907;45.562;8.856;2024-01-15T13:48:24;7.70;99.90
51021;DHT22;38907;45.562;8.856;2024-01-15T13:53:26;7.60;99.90
51021;DHT22;38907;45.562;8.856;2024-01-15T13:58:28;7.70;99.90
51021;DHT22;38907;45.562;8.856;2024-01-15T14:03:31;7.70;99.90
51021;DHT22;38907;45.562;8.856;2024-01-15T14:08:34;7.70;99.90
51021;DHT22;38907;45.562;8.856;2024-01-15T14:13:36;7.70;99.90
51021;DHT22;38907;45.562;8.856;2024-01-15T14:18:39;7.80;99.90
51021;DHT22;38907;45.562;8.856;2024-01-15T14:23:41;7.70;99.90
51021;DHT22;38907;45.562;8.856;2024-01-15T14:28:43;7.70;99.90
51021;DHT22;38907;45.562;8.856;2024-01-15T14:33:48;7.60;99.90
51021;DHT22;38907;45.562;8.856;2024-01-15T14:38:50;7.70;99.90
51021;DHT22;38907;45.562;8.856;2024-01-15T14:43:52;7.70;99.90
51021;DHT22;38907;45.562;8.856;2024-01-15T14:48:55;7.60;99.90
51021;DHT22;38907;45.562;8.856;2024-01-15T14:53:57;7.50;99.90
51021;DHT22;38907;45.562;8.856;2024-01-15T14:58:58;7.50;99.90
51021;DHT22;38907;45.562;8.856;2024-01-15T15:04:02;7.60;99.90
51021;DHT22;38907;45.562;8.856;2024-01-15T15:09:04;7.50;99.90
51021;DHT22;38907;45.562;8.856;2024-01-15T15:14:10;7.50;99.90
51021;DHT22;38907;45.562;8.856;2024-01-15T15:19:13;7.50;99.90
51021;DHT22;38907;45.562;8.856;2024-01-15T15:24:15;7.50;99.90
51021;DHT22;38907;45.562;8.856;2024-01-15T15:29:17;7.40;99.90
51021;DHT22;38907;45.562;8.856;2024-01-15T15:34:20;7.50;99.90
51021;DHT22;38907;45.562;8.856;2024-01-15T15:39:22;7.40;99.90
51021;DHT22;38907;45.562;8.856;2024-01-15T15:44:24;7.20;99.90
51021;DHT22;38907;45.562;8.856;2024-01-15T15:49:27;7.20;99.90
51021;DHT22;38907;45.562;8.856;2024-01-15T15:54:28;7.00;99.90
51021;DHT22;38907;45.562;8.856;2024-01-15T15:59:30;6.90;99.90
51021;DHT22;38907;45.562;8.856;2024-01-15T16:04:33;6.80;99.90
51021;DHT22;38907;45.562;8.856;2024-01-15T16:09:35;6.60;99.90
51021;DHT22;38907;45.562;8.856;2024-01-15T16:14:37;6.60;99.90
51021;DHT22;38907;45.562;8.856;2024-01-15T16:19:40;6.40;99.90
51021;DHT22;38907;45.562;8.856;2024-01-15T16:24:42;6.50;99.90
51021;DHT22;38907;45.562;8.856;2024-01-15T16:29:44;6.30;99.90
51021;DHT22;38907;45.562;8.856;2024-01-15T16:34:47;6.20;99.90
51021;DHT22;38907;45.562;8.856;2024-01-15T16:39:49;6.20;99.90
51021;DHT22;38907;45.562;8.856;2024-01-15T16:44:50;6.10;99.90
51021;DHT22;38907;45.562;8.856;2024-01-15T16:49:54;6.00;99.90
51021;DHT22;38907;45.562;8.856;2024-01-15T16:54:55;5.90;99.90
51021;DHT22;38907;45.562;8.856;2024-01-15T16:59:57;5.90;99.90
51021;DHT22;38907;45.562;8.856;2024-01-15T17:05:00;5.80;99.90
51021;DHT22;38907;45.562;8.856;2024-01-15T17:10:03;5.70;99.90
51021;DHT22;38907;45.562;8.856;2024-01-15T17:15:05;5.70;99.90
51021;DHT22;38907;45.562;8.856;2024-01-15T17:20:10;5.50;99.90
51021;DHT22;38907;45.562;8.856;2024-01-15T17:25:12;5.40;99.90
51021;DHT22;38907;45.562;8.856;2024-01-15T17:30:14;5.60;99.90
51021;DHT22;38907;45.562;8.856;2024-01-15T17:35:18;5.40;99.90
51021;DHT22;38907;45.562;8.856;2024-01-15T17:40:20;5.30;99.90
51021;DHT22;38907;45.562;8.856;2024-01-15T17:45:22;5.10;99.90
51021;DHT22;38907;45.562;8.856;2024-01-15T17:50:27;5.20;99.90
51021;DHT22;38907;45.562;8.856;2024-01-15T17:55:29;5.10;99.90
51021;DHT22;38907;45.562;8.856;2024-01-15T18:00:31;4.80;99.90
51021;DHT22;38907;45.562;8.856;2024-01-15T18:05:34;4.70;99.90
51021;DHT22;38907;45.562;8.856;2024-01-15T18:10:36;4.70;99.90
51021;DHT22;38907;45.562;8.856;2024-01-15T18:15:38;4.90;99.90
51021;DHT22;38907;45.562;8.856;2024-01-15T18:20:41;4.80;99.90
51021;DHT22;38907;45.562;8.856;2024-01-15T18:25:43;4.70;99.90
51021;DHT22;38907;45.562;8.856;2024-01-15T18:30:45;4.50;99.90
51021;DHT22;38907;45.562;8.856;2024-01-15T18:35:48;4.60;99.90
51021;DHT22;38907;45.562;8.856;2024-01-15T18:40:50;4.60;99.90
51021;DHT22;38907;45.562;8.856;2024-01-15T18:45:53;4.30;99.90
51021;DHT22;38907;45.562;8.856;2024-01-15T18:50:56;4.40;99.90
51021;DHT22;38907;45.562;8.856;2024-01-15T18:56:01;4.50;99.90
51021;DHT22;38907;45.562;8.856;2024-01-15T19:01:03;4.30;99.90
51021;DHT22;38907;45.562;8.856;2024-01-15T19:06:06;4.20;99.90
51021;DHT22;38907;45.562;8.856;2024-01-15T19:11:09;4.30;99.90
51021;DHT22;38907;45.562;8.856;2024-01-15T19:16:11;4.10;99.90
51021;DHT22;38907;45.562;8.856;2024-01-15T19:21:15;3.80;99.90
51021;DHT22;38907;45.562;8.856;2024-01-15T19:26:17;4.00;99.90
51021;DHT22;38907;45.562;8.856;2024-01-15T19:31:19;3.70;99.90
51021;DHT22;38907;45.562;8.856;2024-01-15T19:36:22;3.70;99.90
51021;DHT22;38907;45.562;8.856;2024-01-15T19:41:24;3.70;99.90
51021;DHT22;38907;45.562;8.856;2024-01-15T19:46:26;3.60;99.90
51021;DHT22;38907;45.562;8.856;2024-01-15T19:51:29;3.60;99.90
51021;DHT22;38907;45.562;8.856;2024-01-15T19:56:32;3.60;99.90
51021;DHT22;38907;45.562;8.856;2024-01-15T20:01:38;3.60;99.90
51021;DHT22;38907;45.562;8.856;2024-01-15T20:06:41;3.40;99.90
51021;DHT22;38907;45.562;8.856;2024-01-15T20:11:43;3.60;99.90
51021;DHT22;38907;45.562;8.856;2024-01-15T20:16:46;3.80;99.90
51021;DHT22;38907;45.562;8.856;2024-01-15T20:21:49;3.70;99.90
51021;DHT22;38907;45.562;8.856;2024-01-15T20:26:51;3.30;99.90
51021;DHT22;38907;45.562;8.856;2024-01-15T20:31:53;3.30;99.90
51021;DHT22;38907;45.562;8.856;2024-01-15T20:36:56;3.40;99.90
51021;DHT22;38907;45.562;8.856;2024-01-15T20:41:58;3.50;99.90
51021;DHT22;38907;45.562;8.856;2024-01-15T20:47:00;3.40;99.90
51021;DHT22;38907;45.562;8.856;2024-01-15T20:52:04;3.50;99.90
51021;DHT22;38907;45.562;8.856;2024-01-15T20:57:05;3.20;99.90
51021;DHT22;38907;45.562;8.856;2024-01-15T21:02:07;2.90;99.90
51021;DHT22;38907;45.562;8.856;2024-01-15T21:07:10;3.10;99.90
51021;DHT22;38907;45.562;8.856;2024-01-15T21:12:12;3.00;99.90
51021;DHT22;38907;45.562;8.856;2024-01-15T21:17:14;2.90;99.90
51021;DHT22;38907;45.562;8.856;2024-01-15T21:22:17;3.00;99.90
51021;DHT22;38907;45.562;8.856;2024-01-15T21:27:19;3.00;99.90
51021;DHT22;38907;45.562;8.856;2024-01-15T21:32:21;2.70;99.90
51021;DHT22;38907;45.562;8.856;2024-01-15T21:37:24;2.90;99.90
51021;DHT22;38907;45.562;8.856;2024-01-15T21:42:27;3.10;99.90
51021;DHT22;38907;45.562;8.856;2024-01-15T21:47:29;3.20;99.90
51021;DHT22;38907;45.562;8.856;2024-01-15T21:52:32;3.00;99.90
51021;DHT22;38907;45.562;8.856;2024-01-15T21:57:34;3.00;99.90
51021;DHT22;38907;45.562;8.856;2024-01-15T22:02:36;3.10;99.90
51021;DHT22;38907;45.562;8.856;2024-01-15T22:07:42;3.30;99.90
51021;DHT22;38907;45.562;8.856;2024-01-15T22:12:44;3.10;99.90
51021;DHT22;38907;45.562;8.856;2024-01-15T22:17:46;2.90;99.90
51021;DHT22;38907;45.562;8.856;2024-01-15T22:22:49;2.90;99.90
51021;DHT22;38907;45.562;8.856;2024-01-15T22:27:51;3.10;99.90
51021;DHT22;38907;45.562;8.856;2024-01-15T22:32:53;3.10;99.90
51021;DHT22;38907;45.562;8.856;2024-01-15T22:37:56;2.70;99.90
51021;DHT22;38907;45.562;8.856;2024-01-15T22:43:01;2.30;99.90
51021;DHT22;38907;45.562;8.856;2024-01-15T22:48:03;2.60;99.90
51021;DHT22;38907;45.562;8.856;2024-01-15T22:53:06;2.60;99.90
51021;DHT22;38907;45.562;8.856;2024-01-15T22:58:09;2.20;99.90
51021;DHT22;38907;45.562;8.856;2024-01-15T23:03:11;2.60;99.90
51021;DHT22;38907;45.562;8.856;2024-01-15T23:08:14;2.60;99.90
51021;DHT22;38907;45.562;8.856;2024-01-15T23:13:16;2.30;99.90
51021;DHT22;38907;45.562;8.856;2024-01-15T23:18:18;2.50;99.90
51021;DHT22;38907;45.562;8.856;2024-01-15T23:23:21;2.50;99.90
51021;DHT22;38907;45.562;8.856;2024-01-15T23:28:23;2.20;99.90
51021;DHT22;38907;45.562;8.856;2024-01-15T23:33:25;2.10;99.90
51021;DHT22;38907;45.562;8.856;2024-01-15T23:38:28;2.20;99.90
51021;DHT22;38907;45.562;8.856;2024-01-15T23:43:30;1.80;99.90
51021;DHT22;38907;45.562;8.856;2024-01-15T23:48:32;2.00;99.90
51021;DHT22;38907;45.562;8.856;2024-01-15T23:53:35;2.20;99.90
51021;DHT22;38907;45.562;8.856;2024-01-15T23:58:37;1.80;99.90
